Time;durP1;ratioP1;P1;durP2;ratioP2;P2;SDS_P1;SDS_P2;PMS_P1;PMS_P2;Temp;Humidity;BMP_temperature;BMP_pressure;BME280_temperature;BME280_humidity;BME280_pressure;Samples;Min_cycle;Max_cycle;Signal;HPM_P1;HPM_P2
2021/05/28 00:01:00;;;;;;;6.00;4.70;;;;;;;17.41;64.96;98610.06;5105359;28;20019;-76
2021/05/28 00:03:25;;;;;;;5.57;5.05;;;;;;;17.38;64.82;98605.31;5109348;28;20031;-76
2021/05/28 00:05:51;;;;;;;5.53;4.10;;;;;;;17.35;65.12;98606.00;5111963;28;20023;-76
2021/05/28 00:08:16;;;;;;;4.95;4.45;;;;;;;17.31;65.25;98595.06;5098955;28;20400;-77
2021/05/28 00:10:42;;;;;;;6.20;5.00;;;;;;;17.28;65.07;98593.81;5110675;28;20018;-77
2021/05/28 00:13:08;;;;;;;6.10;4.45;;;;;;;17.33;65.29;98600.13;5111315;28;20020;-76
2021/05/28 00:15:33;;;;;;;5.55;4.50;;;;;;;17.33;65.03;98600.13;5107588;28;20118;-75
2021/05/28 00:18:00;;;;;;;5.10;4.60;;;;;;;17.34;65.28;98602.50;5094023;28;20023;-75
2021/05/28 00:20:25;;;;;;;4.57;4.20;;;;;;;17.38;65.10;98597.22;5111140;28;20044;-77
2021/05/28 00:22:51;;;;;;;7.03;5.13;;;;;;;17.40;65.26;98601.16;5111425;28;20581;-76
2021/05/28 00:25:16;;;;;;;7.50;4.43;;;;;;;17.40;65.18;98590.34;5110979;28;20540;-76
2021/05/28 00:27:43;;;;;;;5.82;4.22;;;;;;;17.44;64.94;98594.00;5109298;28;20071;-78
2021/05/28 00:30:09;;;;;;;4.88;4.25;;;;;;;17.46;64.84;98593.66;5109921;28;20466;-78
2021/05/28 00:32:35;;;;;;;5.45;3.63;;;;;;;17.46;65.14;98582.84;5106895;28;20061;-76
2021/05/28 00:35:00;;;;;;;5.38;4.68;;;;;;;17.44;64.97;98582.38;5090848;28;20024;-76
2021/05/28 00:37:26;;;;;;;4.72;4.03;;;;;;;17.40;64.62;98579.53;5091317;28;20024;-75
2021/05/28 00:39:51;;;;;;;4.85;4.43;;;;;;;17.44;64.96;98577.78;5105330;28;20023;-75
2021/05/28 00:42:17;;;;;;;8.05;4.65;;;;;;;17.42;64.66;98580.00;5107003;28;20118;-76
2021/05/28 00:44:43;;;;;;;5.15;4.20;;;;;;;17.42;64.64;98582.72;5091256;28;20659;-76
2021/05/28 00:47:09;;;;;;;5.72;4.85;;;;;;;17.41;64.95;98575.72;5108842;28;20022;-76
2021/05/28 00:49:35;;;;;;;7.78;5.38;;;;;;;17.39;64.99;98560.97;5109903;28;20454;-76
2021/05/28 00:52:01;;;;;;;4.82;4.15;;;;;;;17.36;64.76;98573.22;5093173;28;20028;-78
2021/05/28 00:54:27;;;;;;;7.22;4.55;;;;;;;17.34;64.91;98572.75;5098854;28;20103;-77
2021/05/28 00:56:53;;;;;;;7.47;5.32;;;;;;;17.33;65.19;98573.09;5107989;28;20054;-76
2021/05/28 00:59:19;;;;;;;5.18;4.43;;;;;;;17.33;65.05;98570.41;5107795;28;20383;-75
2021/05/28 01:01:46;;;;;;;5.07;4.47;;;;;;;17.33;64.83;98576.59;5095509;28;20478;-75
2021/05/28 01:04:12;;;;;;;6.82;4.80;;;;;;;17.33;64.81;98570.41;5091101;28;20028;-77
2021/05/28 01:06:38;;;;;;;5.50;4.75;;;;;;;17.32;65.29;98563.41;5092246;28;20084;-76
2021/05/28 01:09:07;;;;;;;8.10;4.75;;;;;;;17.24;64.63;98556.97;5107696;28;20027;-77
2021/05/28 01:11:33;;;;;;;7.43;4.97;;;;;;;17.20;64.84;98551.44;5104334;28;20115;-78
2021/05/28 01:13:59;;;;;;;5.63;4.88;;;;;;;17.18;65.14;98558.31;5105938;28;20065;-78
2021/05/28 01:16:25;;;;;;;6.40;5.13;;;;;;;17.13;65.26;98553.88;5102688;28;20085;-76
2021/05/28 01:18:51;;;;;;;6.47;5.82;;;;;;;17.09;65.40;98548.34;5100969;28;20102;-76
2021/05/28 01:21:16;;;;;;;5.03;4.63;;;;;;;17.06;65.58;98550.94;5110288;28;20016;-76
2021/05/28 01:23:42;;;;;;;6.82;5.40;;;;;;;17.01;65.39;98549.22;5097587;28;20042;-76
2021/05/28 01:26:07;;;;;;;5.35;4.85;;;;;;;17.00;65.55;98561.13;5107866;28;20036;-77
2021/05/28 01:28:33;;;;;;;9.18;4.35;;;;;;;16.99;65.67;98548.78;5111112;28;20027;-77
2021/05/28 01:30:59;;;;;;;5.07;4.60;;;;;;;16.97;65.94;98556.41;5111269;28;20459;-78
2021/05/28 01:33:26;;;;;;;4.85;4.35;;;;;;;16.96;65.90;98554.81;5109441;28;20030;-77
2021/05/28 01:35:52;;;;;;;4.78;4.32;;;;;;;16.98;65.82;98546.38;5112712;28;20038;-77
2021/05/28 01:38:18;;;;;;;7.22;5.45;;;;;;;16.97;66.08;98551.00;5102981;28;20490;-76
2021/05/28 01:40:43;;;;;;;5.43;4.93;;;;;;;16.97;66.26;98548.31;5110143;28;20065;-78
2021/05/28 01:43:09;;;;;;;4.97;4.38;;;;;;;16.97;65.94;98559.13;5113266;28;20023;-78
2021/05/28 01:45:34;;;;;;;8.77;5.40;;;;;;;16.95;65.79;98562.16;5112828;28;20088;-78
2021/05/28 01:48:05;;;;;;;5.32;4.85;;;;;;;16.90;65.76;98562.31;5094326;28;20052;-79
2021/05/28 01:50:42;;;;;;;5.43;4.90;;;;;;;16.89;65.67;98562.63;5106408;28;20031;-79
2021/05/28 01:53:08;;;;;;;5.28;4.78;;;;;;;16.83;65.66;98555.84;5109485;28;20512;-80
2021/05/28 01:55:33;;;;;;;6.20;5.60;;;;;;;16.80;65.62;98555.38;5112520;28;20032;-79
2021/05/28 01:57:58;;;;;;;6.90;5.53;;;;;;;16.73;65.85;98552.41;5113187;28;20102;-80
2021/05/28 02:00:24;;;;;;;6.15;5.55;;;;;;;16.69;66.11;98565.00;5113222;28;20033;-78
2021/05/28 02:02:49;;;;;;;6.50;5.30;;;;;;;16.64;66.08;98562.50;5112874;28;20023;-79
2021/05/28 02:05:15;;;;;;;8.02;5.40;;;;;;;16.62;66.03;98562.03;5106955;28;20115;-79
2021/05/28 02:07:41;;;;;;;7.20;5.07;;;;;;;16.61;66.30;98555.84;5108417;28;20023;-80
2021/05/28 02:10:07;;;;;;;5.50;5.00;;;;;;;16.58;66.33;98550.31;5108173;28;20024;-81
2021/05/28 02:12:32;;;;;;;7.22;4.43;;;;;;;16.56;66.22;98547.94;5094445;28;20058;-78
2021/05/28 02:15:00;;;;;;;5.15;4.65;;;;;;;16.55;66.23;98542.88;5113099;28;20056;-77
2021/05/28 02:17:26;;;;;;;6.65;5.20;;;;;;;16.55;66.34;98548.25;5103455;28;20031;-79
2021/05/28 02:19:54;;;;;;;5.72;4.82;;;;;;;16.53;66.18;98558.59;5094150;28;20028;-78
2021/05/28 02:22:20;;;;;;;6.20;5.07;;;;;;;16.50;66.23;98554.63;5112815;28;20015;-77
2021/05/28 02:24:45;;;;;;;9.73;4.65;;;;;;;16.50;66.29;98554.63;5102395;28;20387;-77
2021/05/28 02:27:10;;;;;;;5.63;5.13;;;;;;;16.49;66.05;98545.75;5108543;28;20095;-78
2021/05/28 02:29:37;;;;;;;9.38;4.68;;;;;;;16.49;65.70;98551.16;5112425;28;20023;-78
2021/05/28 02:32:02;;;;;;;5.38;4.82;;;;;;;16.47;65.52;98555.31;5092824;28;20085;-80
2021/05/28 02:34:28;;;;;;;4.40;4.00;;;;;;;16.45;65.40;98552.94;5106977;28;20453;-79
2021/05/28 02:36:53;;;;;;;4.80;4.40;;;;;;;16.42;65.36;98556.28;5110875;28;20023;-79
2021/05/28 02:39:19;;;;;;;5.65;4.90;;;;;;;16.36;65.30;98552.19;5103131;28;20035;-78
2021/05/28 02:41:44;;;;;;;4.82;4.32;;;;;;;16.34;65.17;98551.72;5103613;28;20232;-78
2021/05/28 02:44:09;;;;;;;4.55;4.13;;;;;;;16.33;65.42;98555.53;5112118;28;20110;-77
2021/05/28 02:46:35;;;;;;;5.35;4.72;;;;;;;16.30;65.74;98556.97;5113218;28;20020;-77
2021/05/28 02:49:02;;;;;;;4.90;4.40;;;;;;;16.25;65.57;98557.16;5113500;28;20477;-79
2021/05/28 02:51:27;;;;;;;5.20;4.18;;;;;;;16.24;65.33;98557.50;5098538;28;20035;-77
2021/05/28 02:53:53;;;;;;;6.70;4.60;;;;;;;16.17;65.55;98560.69;5110099;28;20020;-77
2021/05/28 02:56:18;;;;;;;5.28;4.57;;;;;;;16.21;65.87;98577.03;5113922;28;20115;-78
2021/05/28 02:58:43;;;;;;;5.68;4.63;;;;;;;16.19;65.81;98573.88;5113199;28;20027;-76
2021/05/28 03:01:09;;;;;;;7.10;4.97;;;;;;;16.15;65.67;98574.50;5113756;28;20023;-79
2021/05/28 03:03:34;;;;;;;6.65;4.63;;;;;;;16.17;66.18;98571.47;5111644;28;20019;-79
2021/05/28 03:06:00;;;;;;;5.57;4.78;;;;;;;16.18;66.12;98573.06;5107386;28;20073;-78
2021/05/28 03:08:26;;;;;;;8.02;4.38;;;;;;;16.25;65.94;98580.66;5098442;28;20379;-77
2021/05/28 03:10:53;;;;;;;6.80;4.95;;;;;;;16.26;66.09;98574.94;5113524;28;20486;-77
2021/05/28 03:13:18;;;;;;;4.97;4.57;;;;;;;16.39;65.89;98575.03;5111729;28;20085;-76
2021/05/28 03:15:44;;;;;;;6.72;5.22;;;;;;;16.47;65.47;98574.19;5103572;28;20020;-76
2021/05/28 03:18:17;;;;;;;5.90;5.20;;;;;;;16.53;64.92;98570.19;5110992;28;20015;-77
2021/05/28 03:20:46;;;;;;;6.05;5.32;;;;;;;16.66;65.08;98573.75;5107192;28;20031;-78
2021/05/28 03:23:12;;;;;;;6.75;4.63;;;;;;;16.94;64.65;98578.66;5109673;28;20015;-77
2021/05/28 03:25:38;;;;;;;6.55;4.95;;;;;;;17.21;64.17;98571.94;5112278;28;20481;-77
2021/05/28 03:28:04;;;;;;;9.07;4.60;;;;;;;17.60;63.13;98575.22;5096789;28;20115;-77
2021/05/28 03:30:30;;;;;;;4.32;3.92;;;;;;;18.01;62.59;98578.13;5094668;28;20500;-78
2021/05/28 03:32:55;;;;;;;3.90;3.58;;;;;;;18.45;61.34;98580.28;5104315;28;20024;-77
2021/05/28 03:35:20;;;;;;;5.82;4.70;;;;;;;18.94;59.54;98576.72;5106908;28;20403;-77
2021/05/28 03:37:46;;;;;;;4.63;4.20;;;;;;;19.40;58.36;98573.72;5107560;28;20020;-77
2021/05/28 03:40:12;;;;;;;6.50;4.53;;;;;;;19.80;56.60;98578.25;5108169;28;20035;-77
2021/05/28 03:42:38;;;;;;;4.82;4.28;;;;;;;20.15;55.77;98569.44;5098678;28;20115;-76
2021/05/28 03:45:05;;;;;;;10.05;4.97;;;;;;;20.58;54.72;98577.78;5101619;28;20027;-78
2021/05/28 03:47:32;;;;;;;5.43;4.50;;;;;;;20.87;53.48;98583.06;5111210;28;20035;-77
2021/05/28 03:49:57;;;;;;;5.50;3.80;;;;;;;21.20;53.48;98577.16;5111007;28;20028;-76
2021/05/28 03:52:23;;;;;;;3.65;3.33;;;;;;;21.55;52.78;98573.50;5105105;28;20030;-75
2021/05/28 03:54:48;;;;;;;6.57;4.13;;;;;;;21.82;51.44;98570.13;5095327;28;20263;-77
2021/05/28 03:57:14;;;;;;;5.80;4.78;;;;;;;22.22;51.54;98566.84;5099040;28;20023;-76
2021/05/28 03:59:39;;;;;;;3.88;3.55;;;;;;;22.63;50.40;98571.78;5104363;28;20051;-76
2021/05/28 04:02:05;;;;;;;8.57;3.92;;;;;;;23.15;49.33;98582.91;5095737;28;20050;-76
2021/05/28 04:04:31;;;;;;;5.43;4.25;;;;;;;23.57;48.82;98575.63;5094918;28;20039;-76
2021/05/28 04:06:57;;;;;;;7.55;3.83;;;;;;;24.02;47.76;98566.66;5099880;28;20022;-76
2021/05/28 04:09:22;;;;;;;4.53;3.70;;;;;;;24.41;46.99;98566.16;5091884;28;20107;-79
2021/05/28 04:11:48;;;;;;;4.53;4.13;;;;;;;24.57;46.49;98563.13;5106754;28;20022;-79
2021/05/28 04:14:14;;;;;;;8.48;5.38;;;;;;;24.66;46.79;98569.06;5109884;28;20103;-77
2021/05/28 04:16:40;;;;;;;6.10;4.75;;;;;;;24.69;46.90;98570.25;5112403;28;20035;-78
2021/05/28 04:19:06;;;;;;;3.95;3.65;;;;;;;24.67;46.55;98578.03;5101767;28;20027;-77
2021/05/28 04:21:31;;;;;;;5.28;4.20;;;;;;;24.71;46.35;98585.09;5109931;28;20032;-77
2021/05/28 04:23:57;;;;;;;5.65;4.93;;;;;;;24.77;46.22;98572.63;5102846;28;20019;-77
2021/05/28 04:26:22;;;;;;;6.95;4.57;;;;;;;25.02;46.38;98580.16;5105276;28;20044;-80
2021/05/28 04:28:48;;;;;;;5.90;4.30;;;;;;;25.38;45.68;98574.84;5104256;28;20030;-86
2021/05/28 04:31:14;;;;;;;5.10;4.38;;;;;;;25.77;44.84;98569.81;5105262;28;20484;-78
2021/05/28 04:33:39;;;;;;;7.95;4.32;;;;;;;26.03;44.63;98565.91;5109749;28;20024;-81
2021/05/28 04:36:05;;;;;;;6.82;4.30;;;;;;;26.38;44.13;98567.09;5110958;28;20068;-81
2021/05/28 04:38:30;;;;;;;9.18;6.53;;;;;;;26.53;43.35;98565.09;5109735;28;20015;-81
2021/05/28 04:40:56;;;;;;;6.28;4.57;;;;;;;26.63;43.34;98579.94;5111128;28;20028;-82
2021/05/28 04:43:21;;;;;;;6.43;5.03;;;;;;;26.67;43.37;98576.03;5109780;28;20475;-83
2021/05/28 04:45:46;;;;;;;6.03;5.40;;;;;;;26.55;43.37;98570.97;5110936;28;20036;-83
2021/05/28 04:48:12;;;;;;;4.93;4.45;;;;;;;26.35;43.48;98568.66;5111215;28;20026;-82
2021/05/28 04:50:38;;;;;;;6.68;5.38;;;;;;;25.97;44.12;98567.50;5111273;28;20024;-83
2021/05/28 04:53:06;;;;;;;6.53;5.10;;;;;;;25.63;44.69;98565.13;5111394;28;20382;-79
2021/05/28 04:55:31;;;;;;;;;;;;;;;25.26;45.43;98575.94;5110228;28;20024;-81
2021/05/28 04:57:58;;;;;;;9.95;5.70;;;;;;;24.78;46.90;98570.72;5111402;28;19904;-81
2021/05/28 05:00:25;;;;;;;5.90;4.75;;;;;;;24.34;47.76;98575.09;5111103;28;20556;-82
2021/05/28 05:02:51;;;;;;;8.45;6.22;;;;;;;23.91;48.82;98564.63;5109898;28;20034;-83
2021/05/28 05:05:17;;;;;;;7.15;5.38;;;;;;;23.49;49.78;98574.75;5111063;28;20028;-83
2021/05/28 05:07:43;;;;;;;7.07;6.03;;;;;;;23.07;50.98;98570.38;5111173;28;20030;-83
2021/05/28 05:10:11;;;;;;;10.10;6.10;;;;;;;22.67;51.94;98567.13;5112055;28;20024;-81
2021/05/28 05:12:37;;;;;;;9.15;5.53;;;;;;;22.35;52.94;98572.09;5113776;28;20524;-81
2021/05/28 05:15:03;;;;;;;7.28;4.55;;;;;;;22.02;53.96;98571.63;5114212;28;20015;-83
2021/05/28 05:17:29;;;;;;;9.25;5.38;;;;;;;21.71;55.07;98576.13;5115419;28;20020;-83
2021/05/28 05:19:54;;;;;;;8.10;5.63;;;;;;;21.31;56.49;98577.31;5114047;28;20096;-82
2021/05/28 05:22:20;;;;;;;7.63;5.45;;;;;;;21.03;57.34;98574.84;5114148;28;20063;-82
2021/05/28 05:24:45;;;;;;;6.97;5.35;;;;;;;20.78;58.60;98580.56;5113740;28;20027;-82
2021/05/28 05:27:11;;;;;;;5.38;4.88;;;;;;;20.51;59.08;98580.31;5115358;28;20050;-81
2021/05/28 05:29:36;;;;;;;7.63;5.00;;;;;;;20.31;59.37;98574.84;5113789;28;20072;-83
2021/05/28 05:32:02;;;;;;;6.50;4.85;;;;;;;20.16;60.59;98578.34;5114786;28;20111;-83
2021/05/28 05:34:28;;;;;;;4.95;4.53;;;;;;;20.05;60.54;98577.31;5113783;28;20409;-82
2021/05/28 05:36:53;;;;;;;7.07;4.55;;;;;;;19.91;61.08;98585.88;5114860;28;20051;-82
2021/05/28 05:39:21;;;;;;;4.68;4.13;;;;;;;19.88;61.14;98586.59;5113743;28;20028;-82
2021/05/28 05:41:47;;;;;;;11.90;4.07;;;;;;;19.90;61.65;98587.03;5114601;28;20021;-82
2021/05/28 05:44:12;;;;;;;9.02;4.40;;;;;;;20.14;61.58;98591.47;5113319;28;20531;-82
2021/05/28 05:46:39;;;;;;;3.45;3.15;;;;;;;20.54;60.46;98587.75;5113344;28;20035;-82
2021/05/28 05:49:04;;;;;;;4.25;3.03;;;;;;;21.00;59.58;98594.59;5113552;28;20018;-83
2021/05/28 05:51:30;;;;;;;3.70;3.15;;;;;;;21.63;58.18;98592.72;5114510;28;20102;-83
2021/05/28 05:53:55;;;;;;;4.20;3.25;;;;;;;22.21;56.35;98595.25;5114704;28;20383;-82
2021/05/28 05:56:21;;;;;;;7.45;3.20;;;;;;;22.77;54.26;98579.34;5114475;28;20027;-85
2021/05/28 05:58:46;;;;;;;5.25;3.47;;;;;;;23.23;53.09;98589.28;5113204;28;20020;-83
2021/05/28 06:01:12;;;;;;;4.53;3.85;;;;;;;23.53;52.13;98604.03;5113302;28;20454;-82
2021/05/28 06:03:37;;;;;;;5.57;3.78;;;;;;;23.59;52.11;98602.53;5113101;28;20455;-84
2021/05/28 06:06:03;;;;;;;4.45;3.83;;;;;;;23.60;51.98;98604.88;5114538;28;20494;-83
2021/05/28 06:08:28;;;;;;;4.63;3.60;;;;;;;23.66;51.33;98597.16;5112853;28;20020;-84
2021/05/28 06:10:53;;;;;;;4.40;3.70;;;;;;;23.74;51.03;98598.00;5112909;28;20027;-83
2021/05/28 06:13:19;;;;;;;5.03;3.30;;;;;;;23.83;51.35;98601.97;5114096;28;20034;-82
2021/05/28 06:15:45;;;;;;;3.80;3.20;;;;;;;23.88;51.40;98603.59;5112776;28;20027;-82
2021/05/28 06:18:10;;;;;;;6.60;2.70;;;;;;;24.07;50.52;98613.53;5114368;27;20195;-82
2021/05/28 06:20:36;;;;;;;4.78;3.72;;;;;;;24.06;49.08;98603.78;5113697;28;20451;-83
2021/05/28 06:23:02;;;;;;;6.60;3.40;;;;;;;24.06;49.26;98614.72;5113415;28;20491;-82
2021/05/28 06:25:29;;;;;;;4.38;3.47;;;;;;;23.84;49.81;98605.50;5122591;28;20019;-82
2021/05/28 06:27:54;;;;;;;3.95;3.42;;;;;;;23.73;50.79;98604.59;5117294;28;20079;-82
2021/05/28 06:30:20;;;;;;;5.03;4.28;;;;;;;23.65;51.03;98599.06;5112905;28;20054;-83
2021/05/28 06:32:45;;;;;;;10.15;4.30;;;;;;;23.46;51.60;98599.25;5112850;28;20027;-83
2021/05/28 06:35:12;;;;;;;6.47;4.50;;;;;;;23.35;51.98;98596.41;5112961;28;20024;-84
2021/05/28 06:37:37;;;;;;;4.45;3.90;;;;;;;23.15;52.45;98598.50;5113910;28;20028;-84
2021/05/28 06:40:05;;;;;;;4.78;4.28;;;;;;;22.89;52.92;98591.16;5112702;28;20104;-84
2021/05/28 06:42:31;;;;;;;5.05;4.55;;;;;;;22.69;53.22;98592.09;5112613;28;20462;-83
2021/05/28 06:44:56;;;;;;;5.28;4.75;;;;;;;22.49;54.22;98591.41;5112542;28;20022;-83
2021/05/28 06:47:22;;;;;;;8.52;4.80;;;;;;;22.27;54.78;98594.97;5112466;28;20559;-84
2021/05/28 06:49:48;;;;;;;6.78;5.22;;;;;;;22.15;55.59;98596.69;5112293;28;20129;-83
2021/05/28 06:52:13;;;;;;;8.60;5.65;;;;;;;21.97;56.43;98599.16;5112396;28;20118;-82
2021/05/28 06:54:39;;;;;;;6.65;5.97;;;;;;;21.81;57.44;98601.97;5111959;28;20019;-84
2021/05/28 06:57:04;;;;;;;6.78;5.88;;;;;;;21.58;58.42;98597.31;5113770;28;20027;-84
2021/05/28 06:59:30;;;;;;;6.97;5.60;;;;;;;21.40;59.04;98599.66;5113461;28;20023;-81
2021/05/28 07:01:55;;;;;;;8.07;6.15;;;;;;;21.23;59.89;98600.13;5112081;28;20028;-83
2021/05/28 07:04:21;;;;;;;6.85;6.15;;;;;;;21.07;60.46;98592.81;5112238;28;20023;-83
2021/05/28 07:06:47;;;;;;;5.68;5.18;;;;;;;21.03;60.71;98600.09;5113325;28;20111;-83
2021/05/28 07:09:12;;;;;;;7.28;5.60;;;;;;;20.97;61.14;98609.69;5112273;28;20111;-83
2021/05/28 07:11:38;;;;;;;9.25;6.65;;;;;;;20.88;61.26;98611.81;5112964;28;20049;-83
2021/05/28 07:14:04;;;;;;;6.75;6.07;;;;;;;20.82;61.37;98613.25;5111996;28;20019;-83
2021/05/28 07:16:29;;;;;;;5.82;5.22;;;;;;;20.77;62.13;98614.28;5111654;28;20019;-83
2021/05/28 07:18:55;;;;;;;6.72;6.03;;;;;;;20.71;62.12;98623.84;5111767;28;20031;-82
2021/05/28 07:21:23;;;;;;;11.32;6.30;;;;;;;20.67;62.64;98623.75;5111928;28;20030;-82
2021/05/28 07:23:48;;;;;;;11.90;6.85;;;;;;;20.63;62.88;98625.63;5111573;28;20027;-82
2021/05/28 07:26:14;;;;;;;10.77;7.95;;;;;;;20.60;63.13;98624.41;5111686;28;20052;-82
2021/05/28 07:28:39;;;;;;;12.18;8.30;;;;;;;20.59;63.22;98622.81;5111803;28;20032;-82
2021/05/28 07:31:05;;;;;;;11.40;8.07;;;;;;;20.59;62.90;98630.97;5111849;28;20100;-83
2021/05/28 07:33:30;;;;;;;11.50;9.35;;;;;;;20.57;63.49;98627.81;5111712;28;20030;-83
2021/05/28 07:35:56;;;;;;;12.15;9.05;;;;;;;20.51;63.47;98622.97;5113062;28;20038;-83
2021/05/28 07:38:21;;;;;;;12.95;9.45;;;;;;;20.48;63.65;98619.03;5111575;28;20023;-84
2021/05/28 07:40:47;;;;;;;11.23;8.85;;;;;;;20.50;63.72;98619.50;5110846;28;20062;-83
2021/05/28 07:43:12;;;;;;;12.60;8.73;;;;;;;20.51;63.76;98621.06;5111272;28;20012;-84
2021/05/28 07:45:39;;;;;;;12.70;9.65;;;;;;;20.54;63.93;98625.78;5111265;28;20024;-83
2021/05/28 07:48:05;;;;;;;10.73;8.35;;;;;;;20.60;63.60;98623.59;5111394;28;20088;-84
2021/05/28 07:50:46;;;;;;;8.55;7.30;;;;;;;20.63;63.22;98626.38;5111233;28;20123;-84
2021/05/28 07:53:17;;;;;;;6.63;6.03;;;;;;;20.68;61.99;98624.53;5111253;28;20073;-83
2021/05/28 07:55:42;;;;;;;12.13;7.32;;;;;;;20.70;61.82;98625.78;5111017;28;20535;-83
2021/05/28 07:58:08;;;;;;;8.07;5.97;;;;;;;20.75;61.39;98624.72;5111050;28;20016;-84
2021/05/28 08:00:34;;;;;;;7.88;6.22;;;;;;;20.81;61.94;98617.88;5111067;28;20149;-82
2021/05/28 08:03:00;;;;;;;7.82;5.78;;;;;;;20.94;62.20;98619.31;5112031;28;20382;-83
2021/05/28 08:05:25;;;;;;;37.55;19.20;;;;;;;21.07;61.63;98621.94;5110745;28;20120;-82
2021/05/28 08:07:51;;;;;;;371.40;147.05;;;;;;;21.22;62.17;98612.91;5112003;28;20051;-82
2021/05/28 08:10:16;;;;;;;87.50;38.35;;;;;;;21.41;60.83;98619.47;5110615;28;20026;-82
2021/05/28 08:12:42;;;;;;;106.55;44.30;;;;;;;21.59;59.25;98609.78;5111856;28;20020;-82
2021/05/28 08:15:08;;;;;;;43.78;22.23;;;;;;;21.82;57.89;98622.59;5110623;28;20084;-82
2021/05/28 08:17:33;;;;;;;8.10;6.97;;;;;;;21.91;57.01;98619.66;5110769;28;20019;-83
2021/05/28 08:19:59;;;;;;;8.88;6.10;;;;;;;22.09;56.11;98616.44;5110461;28;20030;-83
2021/05/28 08:22:24;;;;;;;6.30;5.65;;;;;;;22.12;56.15;98611.06;5110363;28;20020;-82
2021/05/28 08:24:49;;;;;;;7.45;5.93;;;;;;;22.23;56.00;98608.50;5110449;28;20167;-82
2021/05/28 08:27:16;;;;;;;9.18;5.40;;;;;;;22.27;55.09;98608.56;5110364;28;20437;-82
2021/05/28 08:29:43;;;;;;;5.82;5.30;;;;;;;22.23;53.88;98606.56;5110400;28;20488;-82
2021/05/28 08:32:08;;;;;;;7.60;4.68;;;;;;;22.35;52.35;98600.13;5110637;28;20019;-82
2021/05/28 08:34:34;;;;;;;3.33;3.03;;;;;;;22.37;49.23;98605.22;5110488;28;20397;-82
2021/05/28 08:36:59;;;;;;;4.63;3.20;;;;;;;22.36;51.20;98604.44;5109950;28;20024;-82
2021/05/28 08:39:24;;;;;;;5.30;2.83;;;;;;;22.42;48.50;98599.47;5110414;28;20124;-82
2021/05/28 08:41:51;;;;;;;4.75;3.03;;;;;;;22.44;48.24;98601.84;5110438;28;20440;-81
2021/05/28 08:44:24;;;;;;;4.63;2.60;;;;;;;22.41;48.59;98599.84;5110910;28;20020;-81
2021/05/28 08:46:53;;;;;;;3.42;3.13;;;;;;;22.45;49.45;98600.69;5110128;28;20023;-81
2021/05/28 08:49:20;;;;;;;3.08;2.88;;;;;;;22.48;48.70;98592.56;5110393;28;20016;-82
2021/05/28 08:51:45;;;;;;;3.50;2.70;;;;;;;22.52;48.16;98596.13;5111637;28;20020;-82
2021/05/28 08:54:11;;;;;;;2.70;2.50;;;;;;;22.55;48.17;98583.72;5110709;28;20024;-82
2021/05/28 08:56:36;;;;;;;5.40;2.85;;;;;;;22.69;49.58;98596.75;5112181;28;20178;-82
2021/05/28 08:59:04;;;;;;;3.05;2.75;;;;;;;22.81;48.39;98593.81;5112764;28;20053;-82
2021/05/28 09:01:30;;;;;;;3.03;2.83;;;;;;;22.85;49.32;98586.47;5111918;28;20026;-82
2021/05/28 09:04:00;;;;;;;2.83;2.63;;;;;;;22.96;48.92;98589.34;5110932;28;20023;-82
2021/05/28 09:06:45;;;;;;;7.15;3.42;;;;;;;23.04;48.05;98587.47;5110845;28;20459;-82
2021/05/28 09:09:24;;;;;;;4.45;2.85;;;;;;;23.00;47.14;98581.97;5112372;28;20019;-82
2021/05/28 09:12:01;;;;;;;3.53;2.80;;;;;;;23.03;48.67;98580.44;5110887;28;20031;-82
2021/05/28 09:14:40;;;;;;;3.92;2.53;;;;;;;23.08;46.74;98576.59;5111297;28;20076;-82
2021/05/28 09:17:08;;;;;;;2.60;2.28;;;;;;;23.11;46.64;98575.88;5112108;28;20355;-82
2021/05/28 09:19:35;;;;;;;3.75;2.33;;;;;;;23.09;46.69;98567.28;5110155;28;20019;-81
2021/05/28 09:22:09;;;;;;;2.67;2.45;;;;;;;23.08;47.44;98568.41;5110026;28;20032;-82
2021/05/28 09:24:37;;;;;;;2.92;2.72;;;;;;;23.06;44.74;98562.53;5111510;28;20035;-82
2021/05/28 09:27:27;;;;;;;;;;;;;;;22.99;44.01;98555.84;5111365;28;20036;-83
2021/05/28 09:30:12;;;;;;;3.55;2.67;;;;;;;22.97;44.34;98560.91;5111789;28;19991;-82
2021/05/28 09:32:49;;;;;;;2.20;2.05;;;;;;;22.90;42.49;98552.66;5111253;28;20023;-84
2021/05/28 09:35:17;;;;;;;2.28;2.08;;;;;;;22.88;42.84;98554.16;5109885;28;20402;-82
2021/05/28 09:37:49;;;;;;;3.20;2.90;;;;;;;22.86;44.12;98549.88;5110872;28;20235;-82
2021/05/28 09:40:18;;;;;;;3.40;2.25;;;;;;;22.85;44.38;98556.47;5109538;28;20076;-82
2021/05/28 09:42:51;;;;;;;2.97;2.15;;;;;;;22.90;43.69;98560.03;5111164;28;20156;-82
2021/05/28 09:45:32;;;;;;;2.55;1.80;;;;;;;22.85;42.83;98553.75;5111479;28;20046;-83
2021/05/28 09:47:59;;;;;;;3.28;2.17;;;;;;;22.93;42.36;98551.13;5110856;28;20037;-83
2021/05/28 09:50:25;;;;;;;1.60;1.50;;;;;;;23.02;43.10;98554.31;5109833;28;20023;-82
2021/05/28 09:52:51;;;;;;;3.67;1.85;;;;;;;23.08;41.67;98549.34;5110848;28;20577;-82
2021/05/28 09:55:16;;;;;;;2.00;1.88;;;;;;;23.08;43.09;98543.88;5109761;28;20482;-82
2021/05/28 09:57:47;;;;;;;2.65;1.95;;;;;;;23.10;42.67;98541.56;5112394;28;20023;-83
2021/05/28 10:00:32;;;;;;;2.13;1.92;;;;;;;23.05;43.47;98541.91;5114745;28;20024;-82
2021/05/28 10:03:23;;;;;;;1.88;1.45;;;;;;;23.02;43.26;98537.97;5114144;28;20031;-82
2021/05/28 10:05:51;;;;;;;2.22;2.10;;;;;;;22.94;42.30;98530.88;5113139;28;20035;-82
2021/05/28 10:08:18;;;;;;;3.30;2.03;;;;;;;22.94;43.58;98531.66;5114509;28;20011;-83
2021/05/28 10:10:46;;;;;;;3.17;1.63;;;;;;;22.91;42.64;98537.06;5113040;28;20023;-82
2021/05/28 10:13:14;;;;;;;2.38;1.88;;;;;;;22.86;41.92;98538.16;5113529;28;20027;-82
2021/05/28 10:15:43;;;;;;;1.63;1.52;;;;;;;22.88;44.19;98535.84;5113785;28;20035;-82
2021/05/28 10:18:09;;;;;;;1.63;1.52;;;;;;;22.91;43.35;98528.88;5114715;28;20080;-81
2021/05/28 10:20:40;;;;;;;2.13;1.95;;;;;;;23.01;43.07;98523.56;5113176;28;20107;-82
2021/05/28 10:23:07;;;;;;;2.72;1.90;;;;;;;23.16;41.72;98521.00;5114400;28;20093;-82
2021/05/28 10:25:34;;;;;;;2.08;1.92;;;;;;;23.23;43.12;98512.09;5114417;28;20026;-82
2021/05/28 10:28:02;;;;;;;5.63;2.42;;;;;;;23.24;40.03;98524.59;5113890;28;20592;-82
2021/05/28 10:30:39;;;;;;;2.40;1.42;;;;;;;23.29;39.08;98516.06;5112813;28;20020;-82
2021/05/28 10:33:31;;;;;;;3.57;2.70;;;;;;;23.30;36.69;98523.09;5112501;28;20055;-82
2021/05/28 10:35:58;;;;;;;0.77;0.77;;;;;;;23.30;33.35;98523.09;5112507;28;20027;-81
2021/05/28 10:38:29;;;;;;;4.43;1.60;;;;;;;23.16;34.55;98505.44;5112589;28;20031;-83
2021/05/28 10:41:07;;;;;;;2.85;1.35;;;;;;;23.13;36.03;98500.69;5112302;28;20386;-83
2021/05/28 10:43:38;;;;;;;3.78;1.40;;;;;;;23.02;37.98;98495.13;5113523;28;20043;-82
2021/05/28 10:46:05;;;;;;;1.77;1.67;;;;;;;22.96;38.60;98504.00;5112197;28;20102;-80
2021/05/28 10:48:37;;;;;;;1.50;1.10;;;;;;;22.90;37.32;98498.13;5112508;28;20072;-81
2021/05/28 10:51:04;;;;;;;1.20;1.10;;;;;;;22.88;36.78;98502.38;5112157;28;20032;-82
2021/05/28 10:53:29;;;;;;;1.35;1.20;;;;;;;22.91;37.23;98507.88;5112144;28;20364;-81
2021/05/28 10:56:09;;;;;;;2.97;1.25;;;;;;;22.90;37.69;98494.59;5111988;28;20035;-82
2021/05/28 10:58:51;;;;;;;2.25;1.52;;;;;;;22.86;37.84;98480.91;5113550;28;20110;-81
2021/05/28 11:01:35;;;;;;;1.92;1.50;;;;;;;22.91;38.44;98482.53;5112128;28;20034;-81
2021/05/28 11:04:05;;;;;;;4.10;2.70;;;;;;;22.94;37.68;98485.28;5113153;28;20070;-83
2021/05/28 11:06:32;;;;;;;3.85;2.05;;;;;;;22.96;38.43;98485.72;5111892;28;20028;-82
2021/05/28 11:09:06;;;;;;;1.73;1.17;;;;;;;23.02;37.25;98488.88;5112625;28;20051;-81
2021/05/28 11:11:37;;;;;;;1.33;1.23;;;;;;;23.05;36.67;98493.59;5111916;28;20020;-79
2021/05/28 11:14:04;;;;;;;2.03;1.63;;;;;;;23.03;36.79;98490.44;5112842;28;20103;-80
2021/05/28 11:16:52;;;;;;;1.27;1.13;;;;;;;23.03;37.47;98488.53;5112877;28;20103;-81
2021/05/28 11:19:25;;;;;;;1.35;1.15;;;;;;;23.06;37.83;98495.16;5111500;28;20031;-82
2021/05/28 11:21:58;;;;;;;1.60;1.40;;;;;;;23.09;38.66;98483.50;5114133;28;20055;-82
2021/05/28 11:24:42;;;;;;;1.42;1.17;;;;;;;23.10;37.35;98497.94;5112052;28;20027;-80
2021/05/28 11:27:14;;;;;;;3.90;1.58;;;;;;;23.05;38.51;98481.91;5111427;28;20055;-81
2021/05/28 11:29:40;;;;;;;3.55;2.00;;;;;;;23.13;39.69;98492.53;5111689;28;20016;-81
2021/05/28 11:32:36;;;;;;;2.67;1.75;;;;;;;23.21;39.72;98498.06;5112569;28;20485;-82
2021/05/28 11:35:15;;;;;;;4.88;2.60;;;;;;;23.25;40.61;98488.75;5111261;28;20119;-81